createdAt,value
2023-03-16T00:02:20.197Z,69.77
2023-03-16T00:04:48.029Z,69.86
2023-03-16T00:07:17.342Z,75.96
2023-03-16T00:09:43.809Z,77.92
2023-03-16T00:12:16.121Z,73.13
2023-03-16T00:14:45.500Z,72.65
2023-03-16T00:17:21.068Z,71.30
2023-03-16T00:19:55.348Z,70.77
2023-03-16T00:22:27.251Z,76.55
2023-03-16T00:24:55.511Z,75.47
2023-03-16T00:27:27.865Z,74.32
2023-03-16T00:29:56.463Z,71.46
2023-03-16T00:32:28.753Z,71.43
2023-03-16T00:34:55.172Z,71.48
2023-03-16T00:37:25.875Z,70.75
2023-03-16T00:39:56.090Z,72.53
2023-03-16T00:42:32.045Z,73.25
2023-03-16T00:45:04.094Z,72.00
2023-03-16T00:47:34.899Z,71.70
2023-03-16T00:50:02.314Z,71.69
2023-03-16T00:52:29.570Z,72.03
2023-03-16T00:54:56.269Z,72.55
2023-03-16T00:57:25.108Z,72.00
2023-03-16T00:59:51.554Z,72.95
2023-03-16T01:02:20.886Z,70.83
2023-03-16T01:04:47.537Z,70.63
2023-03-16T01:07:14.919Z,71.21
2023-03-16T01:09:43.231Z,70.45
2023-03-16T01:12:14.581Z,70.52
2023-03-16T01:14:45.791Z,70.26
2023-03-16T01:17:14.740Z,70.52
2023-03-16T01:19:42.810Z,70.36
2023-03-16T01:22:10.469Z,76.85
2023-03-16T01:24:39.515Z,79.45
2023-03-16T01:27:07.993Z,73.80
2023-03-16T01:29:35.035Z,74.18
2023-03-16T01:32:02.994Z,72.28
2023-03-16T01:34:32.171Z,72.28
2023-03-16T01:37:01.485Z,71.80
2023-03-16T01:39:30.816Z,72.30
2023-03-16T01:41:57.656Z,71.44
2023-03-16T01:44:36.799Z,71.06
2023-03-16T01:47:03.165Z,71.48
2023-03-16T01:49:38.632Z,80.20
2023-03-16T01:52:16.547Z,75.37
2023-03-16T01:54:49.068Z,80.15
2023-03-16T01:57:22.242Z,79.04
2023-03-16T01:59:54.840Z,78.14
2023-03-16T02:02:24.184Z,73.99
2023-03-16T02:05:00.501Z,72.75
2023-03-16T02:07:32.937Z,73.31
2023-03-16T02:10:03.004Z,72.01
2023-03-16T02:12:29.896Z,72.01
2023-03-16T02:14:56.335Z,72.89
2023-03-16T02:17:27.428Z,72.54
2023-03-16T02:20:24.120Z,71.99
2023-03-16T02:22:55.347Z,71.83
2023-03-16T02:25:38.676Z,71.39
2023-03-16T02:28:18.285Z,76.20
2023-03-16T02:30:45.902Z,72.18
2023-03-16T02:33:14.738Z,72.81
2023-03-16T02:35:41.168Z,74.78
2023-03-16T02:38:07.949Z,74.50
2023-03-16T02:40:38.658Z,75.64
2023-03-16T02:43:16.698Z,76.71
2023-03-16T02:45:51.209Z,74.12
2023-03-16T02:48:28.496Z,72.35
2023-03-16T02:50:55.029Z,72.44
2023-03-16T02:53:23.088Z,72.46
2023-03-16T02:55:52.202Z,72.99
2023-03-16T02:58:19.018Z,72.82
2023-03-16T03:00:48.096Z,71.89
2023-03-16T03:03:14.567Z,71.99
2023-03-16T03:05:41.194Z,72.31
2023-03-16T03:08:09.114Z,72.53
2023-03-16T03:10:35.808Z,72.10
2023-03-16T03:13:02.430Z,74.01
2023-03-16T03:15:29.421Z,79.82
2023-03-16T03:17:55.856Z,73.51
2023-03-16T03:20:22.509Z,72.97
2023-03-16T03:22:50.454Z,72.47
2023-03-16T03:25:18.411Z,74.05
2023-03-16T03:27:46.557Z,75.18
2023-03-16T03:30:19.737Z,73.41
2023-03-16T03:32:47.048Z,72.73
2023-03-16T03:35:16.114Z,73.30
2023-03-16T03:37:44.212Z,72.65
2023-03-16T03:40:16.312Z,72.53
2023-03-16T03:42:45.874Z,73.12
2023-03-16T03:45:13.672Z,72.22
2023-03-16T03:47:42.578Z,72.64
2023-03-16T03:50:11.759Z,72.15
2023-03-16T03:52:39.454Z,80.95
2023-03-16T03:55:09.009Z,81.03
2023-03-16T03:57:35.780Z,79.23
2023-03-16T04:00:07.875Z,75.56
2023-03-16T04:02:34.665Z,81.04
2023-03-16T04:05:01.074Z,75.92
2023-03-16T04:07:27.395Z,77.27
2023-03-16T04:09:53.805Z,79.48
2023-03-16T04:12:20.479Z,81.74
2023-03-16T04:14:47.197Z,76.68
2023-03-16T04:17:13.619Z,75.53
2023-03-16T04:19:40.438Z,77.16
2023-03-16T04:22:09.552Z,76.63
2023-03-16T04:24:35.931Z,82.51
2023-03-16T04:27:03.955Z,77.34
2023-03-16T04:29:33.960Z,75.70
2023-03-16T04:32:00.371Z,75.32
2023-03-16T04:34:32.228Z,74.30
2023-03-16T04:37:00.892Z,74.06
2023-03-16T04:39:27.242Z,73.95
2023-03-16T04:41:53.594Z,73.78
2023-03-16T04:44:19.972Z,81.37
2023-03-16T04:46:47.427Z,75.51
2023-03-16T04:49:14.043Z,74.47
2023-03-16T04:51:42.474Z,79.35
2023-03-16T04:54:08.841Z,78.94
2023-03-16T04:56:36.318Z,79.74
2023-03-16T04:59:03.845Z,75.21
2023-03-16T05:01:30.410Z,78.61
2023-03-16T05:03:59.540Z,77.66
2023-03-16T05:06:26.162Z,75.70
2023-03-16T05:08:57.415Z,82.78
2023-03-16T05:11:23.777Z,78.95
2023-03-16T05:13:50.111Z,76.27
2023-03-16T05:16:16.639Z,75.23
2023-03-16T05:18:43.359Z,75.19
2023-03-16T05:21:12.610Z,76.89
2023-03-16T05:23:41.376Z,75.44
2023-03-16T05:26:08.525Z,81.03
2023-03-16T05:28:35.149Z,77.28
2023-03-16T05:31:03.720Z,75.88
2023-03-16T05:33:32.315Z,74.69
2023-03-16T05:35:58.744Z,74.19
2023-03-16T05:38:27.634Z,74.10
2023-03-16T05:40:54.488Z,78.20
2023-03-16T05:43:25.362Z,74.65
2023-03-16T05:45:51.764Z,75.00
2023-03-16T05:48:18.478Z,75.14
2023-03-16T05:50:44.832Z,76.82
2023-03-16T05:53:11.258Z,78.89
2023-03-16T05:55:40.445Z,76.00
2023-03-16T05:58:11.406Z,76.63
2023-03-16T06:00:41.049Z,80.10
2023-03-16T06:03:07.455Z,79.34
2023-03-16T06:05:33.985Z,78.35
2023-03-16T06:08:02.734Z,78.69
2023-03-16T06:10:29.447Z,77.29
2023-03-16T06:12:56.279Z,76.81
2023-03-16T06:15:27.321Z,76.41
2023-03-16T06:17:54.234Z,75.70
2023-03-16T06:20:24.200Z,75.92
2023-03-16T06:22:51.811Z,76.05
2023-03-16T06:25:19.608Z,76.13
2023-03-16T06:27:49.480Z,77.00
2023-03-16T06:30:18.133Z,75.73
2023-03-16T06:32:46.118Z,79.25
2023-03-16T06:35:14.864Z,81.92
2023-03-16T06:37:41.612Z,79.73
2023-03-16T06:40:13.471Z,76.41
2023-03-16T06:42:45.640Z,76.06
2023-03-16T06:45:13.105Z,76.08
2023-03-16T06:47:39.463Z,75.79
2023-03-16T06:50:06.616Z,75.98
2023-03-16T06:52:33.205Z,79.86
2023-03-16T06:55:01.410Z,77.06
2023-03-16T06:57:27.805Z,76.47
2023-03-16T06:59:54.223Z,76.82
2023-03-16T07:02:24.015Z,76.16
2023-03-16T07:04:51.555Z,75.74
2023-03-16T07:07:19.216Z,80.10
2023-03-16T07:09:49.329Z,79.30
2023-03-16T07:12:15.754Z,78.35
2023-03-16T07:14:42.149Z,81.03
2023-03-16T07:17:08.941Z,80.09
2023-03-16T07:19:36.553Z,79.46
2023-03-16T07:22:03.508Z,80.99
2023-03-16T07:24:30.727Z,80.22
2023-03-16T07:26:57.136Z,80.19
2023-03-16T07:29:23.588Z,80.26
2023-03-16T07:31:50.009Z,80.17
2023-03-16T07:34:16.369Z,80.50
2023-03-16T07:36:42.730Z,79.27
2023-03-16T07:39:09.075Z,79.35
2023-03-16T07:41:35.447Z,80.30
2023-03-16T07:44:02.228Z,79.96
2023-03-16T07:46:28.584Z,79.69
2023-03-16T07:48:56.280Z,79.07
2023-03-16T07:51:22.616Z,79.87
2023-03-16T07:53:49.197Z,79.35
2023-03-16T07:56:15.536Z,77.71
2023-03-16T07:58:41.955Z,77.71
2023-03-16T08:01:10.863Z,77.07
2023-03-16T08:03:38.126Z,76.56
2023-03-16T08:06:05.489Z,74.89
2023-03-16T08:08:32.745Z,73.34
2023-03-16T08:10:59.073Z,72.44
2023-03-16T08:13:27.350Z,71.53
2023-03-16T08:15:58.519Z,70.36
2023-03-16T08:18:26.546Z,69.46
2023-03-16T08:20:53.387Z,68.76
2023-03-16T08:23:19.811Z,68.79
2023-03-16T08:25:46.237Z,66.58
2023-03-16T08:28:12.771Z,66.95
2023-03-16T08:30:45.851Z,64.21
2023-03-16T08:33:12.697Z,65.15
2023-03-16T08:35:43.919Z,63.83
2023-03-16T08:38:13.519Z,63.89
2023-03-16T08:40:42.115Z,62.61
2023-03-16T08:43:09.754Z,62.71
2023-03-16T08:45:37.279Z,61.26
2023-03-16T08:48:04.922Z,62.72
2023-03-16T08:50:31.538Z,61.69
2023-03-16T08:52:58.116Z,61.56
2023-03-16T08:55:24.491Z,62.70
2023-03-16T08:57:50.853Z,60.58
2023-03-16T09:00:17.904Z,59.53
2023-03-16T09:02:44.601Z,61.55
2023-03-16T09:05:13.448Z,60.01
2023-03-16T09:07:39.970Z,60.05
2023-03-16T09:10:08.267Z,58.83
2023-03-16T09:12:36.194Z,56.17
2023-03-16T09:15:05.406Z,55.69
2023-03-16T09:17:31.793Z,58.64
2023-03-16T09:20:05.524Z,57.18
2023-03-16T09:22:41.910Z,53.72
2023-03-16T09:25:10.434Z,54.41
2023-03-16T09:27:37.441Z,54.54
2023-03-16T09:30:09.245Z,53.51
2023-03-16T09:32:37.267Z,52.40
2023-03-16T09:35:06.216Z,51.92
2023-03-16T09:37:44.577Z,52.75
2023-03-16T09:40:22.892Z,52.89
2023-03-16T09:43:03.691Z,51.68
2023-03-16T09:45:46.342Z,49.75
2023-03-16T09:48:15.510Z,51.01
2023-03-16T09:50:48.702Z,48.93
2023-03-16T09:53:22.160Z,49.07
2023-03-16T09:55:56.013Z,49.42
2023-03-16T09:58:22.952Z,47.81
2023-03-16T10:00:59.328Z,48.42
2023-03-16T10:03:48.086Z,47.81
2023-03-16T10:06:15.295Z,48.86
2023-03-16T10:08:51.363Z,48.39
2023-03-16T10:11:42.244Z,45.92
2023-03-16T10:14:47.619Z,46.53
2023-03-16T10:17:23.085Z,47.46
2023-03-16T10:20:18.103Z,45.63
2023-03-16T10:22:47.266Z,44.69
2023-03-16T10:25:49.626Z,44.82
2023-03-16T10:28:30.483Z,46.31
2023-03-16T10:31:03.538Z,45.56
2023-03-16T10:33:36.618Z,45.21
2023-03-16T10:36:27.146Z,44.49
2023-03-16T10:38:58.044Z,45.97
2023-03-16T10:41:30.524Z,44.53
2023-03-16T10:44:15.062Z,45.27
2023-03-16T10:46:48.583Z,45.87
2023-03-16T10:49:25.774Z,44.95
2023-03-16T10:51:55.802Z,46.02
2023-03-16T10:54:30.752Z,46.19
2023-03-16T10:56:58.685Z,46.20
2023-03-16T10:59:35.248Z,46.06
2023-03-16T11:02:34.901Z,46.61
2023-03-16T11:05:41.947Z,46.78
2023-03-16T11:08:40.069Z,45.49
2023-03-16T11:11:16.584Z,45.54
2023-03-16T11:13:52.350Z,45.71
2023-03-16T11:16:43.599Z,46.74
2023-03-16T11:19:24.587Z,46.13
2023-03-16T11:35:39.899Z,43.82
2023-03-16T11:38:33.982Z,44.03
2023-03-16T11:41:03.888Z,43.67
2023-03-16T11:44:15.611Z,43.25
2023-03-16T11:47:17.325Z,44.05
2023-03-16T11:49:46.325Z,44.13
2023-03-16T11:52:35.482Z,44.61
2023-03-16T11:55:04.832Z,43.84
2023-03-16T11:57:42.855Z,44.14
2023-03-16T12:00:36.932Z,43.14
2023-03-16T12:03:37.068Z,42.91
2023-03-16T12:06:48.619Z,42.75
2023-03-16T12:09:51.429Z,43.00
2023-03-16T12:12:37.519Z,44.15
2023-03-16T12:15:31.366Z,43.85
2023-03-16T12:19:21.930Z,43.46
2023-03-16T12:21:59.694Z,43.95
2023-03-16T12:24:33.906Z,44.46
2023-03-16T12:27:01.449Z,44.90
2023-03-16T12:30:08.850Z,44.95
2023-03-16T12:33:15.943Z,44.83
2023-03-16T12:35:52.723Z,44.90
2023-03-16T12:38:28.597Z,45.45
2023-03-16T12:41:23.295Z,45.85
2023-03-16T12:44:03.095Z,45.95
2023-03-16T12:46:40.584Z,46.14
2023-03-16T12:49:08.982Z,46.55
2023-03-16T12:51:41.471Z,47.40
2023-03-16T12:54:25.384Z,46.99
2023-03-16T12:56:59.519Z,47.61
2023-03-16T12:59:38.252Z,47.84
2023-03-16T13:02:06.747Z,47.52
2023-03-16T13:04:42.118Z,47.70
2023-03-16T13:07:16.243Z,48.47
2023-03-16T13:09:51.643Z,48.47
2023-03-16T13:12:31.640Z,48.57
2023-03-16T13:14:59.054Z,48.84
2023-03-16T13:17:34.238Z,49.08
2023-03-16T13:20:18.194Z,49.43
2023-03-16T13:23:18.815Z,49.58
2023-03-16T13:26:00.239Z,49.21
2023-03-16T13:28:31.592Z,49.15
2023-03-16T13:30:58.590Z,49.41
2023-03-16T13:33:28.477Z,49.15
2023-03-16T13:35:58.749Z,49.40
2023-03-16T13:38:28.400Z,49.23
2023-03-16T13:40:58.034Z,49.28
2023-03-16T13:43:31.840Z,48.83
2023-03-16T13:45:59.233Z,49.02
2023-03-16T13:48:25.708Z,49.12
2023-03-16T13:50:53.894Z,48.88
2023-03-16T13:53:33.512Z,48.91
2023-03-16T13:56:02.609Z,49.44
2023-03-16T13:58:36.262Z,49.32
2023-03-16T14:01:05.692Z,48.97
2023-03-16T14:03:38.740Z,49.96
2023-03-16T14:06:07.200Z,51.08
2023-03-16T14:08:34.638Z,50.76
2023-03-16T14:11:04.829Z,51.47
2023-03-16T14:13:36.214Z,52.03
2023-03-16T14:16:12.028Z,50.90
2023-03-16T14:18:48.815Z,51.53
2023-03-16T14:21:19.750Z,50.70
2023-03-16T14:23:51.332Z,51.06
2023-03-16T14:26:18.922Z,51.63
2023-03-16T14:29:02.743Z,51.41
2023-03-16T14:31:41.168Z,52.00
2023-03-16T14:34:31.428Z,52.34
2023-03-16T14:37:10.078Z,52.23
2023-03-16T14:39:37.594Z,52.37
2023-03-16T14:42:05.349Z,52.79
2023-03-16T14:44:35.933Z,53.05
2023-03-16T14:47:04.996Z,53.26
2023-03-16T14:49:35.697Z,52.82
2023-03-16T14:52:15.921Z,52.85
2023-03-16T14:54:42.523Z,53.03
2023-03-16T14:57:17.367Z,54.02
2023-03-16T14:59:44.011Z,53.78
2023-03-16T15:02:25.086Z,54.28
2023-03-16T15:04:51.852Z,53.38
2023-03-16T15:07:30.487Z,53.46
2023-03-16T15:10:07.075Z,53.76
2023-03-16T15:12:35.009Z,53.94
2023-03-16T15:15:17.692Z,53.99
2023-03-16T15:17:49.217Z,53.71
2023-03-16T15:20:19.824Z,53.93
2023-03-16T15:22:48.170Z,54.05
2023-03-16T15:25:37.558Z,54.21
2023-03-16T15:28:12.653Z,54.34
2023-03-16T15:30:39.236Z,54.76
2023-03-16T15:33:06.779Z,54.82
2023-03-16T15:35:33.452Z,55.08
2023-03-16T15:38:02.478Z,54.60
2023-03-16T15:40:29.866Z,54.61
2023-03-16T15:42:56.973Z,54.65
2023-03-16T15:45:24.012Z,54.92
2023-03-16T15:47:52.557Z,55.00
2023-03-16T15:50:21.873Z,55.16
2023-03-16T15:52:54.182Z,55.13
2023-03-16T15:55:28.017Z,55.32
2023-03-16T15:58:00.388Z,55.36
2023-03-16T16:00:33.180Z,55.80
2023-03-16T16:03:01.924Z,55.45
2023-03-16T16:05:30.978Z,54.89
2023-03-16T16:07:58.377Z,54.79
2023-03-16T16:10:27.079Z,54.77
2023-03-16T16:12:55.742Z,54.89
2023-03-16T16:15:33.732Z,55.23
2023-03-16T16:18:20.354Z,55.78
2023-03-16T16:20:50.214Z,55.61
2023-03-16T16:23:17.956Z,55.70
2023-03-16T16:25:44.902Z,55.65
2023-03-16T16:28:19.632Z,56.00
2023-03-16T16:30:46.380Z,56.34
2023-03-16T16:33:30.115Z,56.06
2023-03-16T16:36:00.623Z,55.94
2023-03-16T16:38:27.963Z,56.23
2023-03-16T16:40:58.147Z,56.61
2023-03-16T16:43:32.733Z,56.56
2023-03-16T16:46:04.157Z,56.37
2023-03-16T16:48:38.157Z,56.85
2023-03-16T16:51:09.715Z,56.50
2023-03-16T16:53:36.446Z,56.73
2023-03-16T16:56:02.985Z,56.73
2023-03-16T16:58:31.789Z,56.93
2023-03-16T17:01:01.076Z,57.04
2023-03-16T17:03:29.903Z,57.08
2023-03-16T17:06:00.037Z,57.47
2023-03-16T17:08:30.029Z,57.48
2023-03-16T17:10:57.133Z,57.57
2023-03-16T17:13:29.895Z,58.17
2023-03-16T17:15:57.558Z,58.08
2023-03-16T17:18:24.750Z,58.38
2023-03-16T17:21:03.914Z,58.38
2023-03-16T17:23:34.582Z,58.69
2023-03-16T17:26:13.798Z,58.69
2023-03-16T17:28:47.374Z,59.03
2023-03-16T17:31:19.533Z,58.84
2023-03-16T17:33:46.107Z,58.94
2023-03-16T17:36:16.764Z,58.93
2023-03-16T17:38:44.006Z,59.39
2023-03-16T17:41:23.890Z,59.64
2023-03-16T17:43:51.750Z,59.10
2023-03-16T17:46:20.606Z,59.39
2023-03-16T17:48:47.868Z,59.59
2023-03-16T17:51:16.835Z,59.76
2023-03-16T17:53:49.915Z,59.94
2023-03-16T17:56:23.343Z,60.19
2023-03-16T17:58:53.559Z,59.77
2023-03-16T18:01:25.543Z,60.10
2023-03-16T18:04:10.889Z,60.27
2023-03-16T18:06:41.624Z,60.22
2023-03-16T18:11:49.597Z,60.83
2023-03-16T18:14:37.592Z,60.99
2023-03-16T18:17:35.605Z,61.17
2023-03-16T18:20:03.753Z,61.50
2023-03-16T18:22:34.792Z,61.84
2023-03-16T18:25:06.397Z,61.43
2023-03-16T18:27:34.675Z,61.32
2023-03-16T18:30:07.821Z,61.83
2023-03-16T18:32:36.705Z,61.81
2023-03-16T18:35:04.247Z,62.07
2023-03-16T18:37:31.871Z,62.54
2023-03-16T18:40:01.665Z,62.40
2023-03-16T18:42:37.362Z,62.37
2023-03-16T18:45:09.291Z,61.85
2023-03-16T18:47:38.067Z,62.34
2023-03-16T18:50:07.488Z,62.25
2023-03-16T18:52:35.874Z,62.29
2023-03-16T18:55:02.460Z,62.19
2023-03-16T18:57:29.173Z,62.38
2023-03-16T19:00:00.201Z,61.83
2023-03-16T19:02:40.108Z,62.23
2023-03-16T19:10:34.083Z,62.13
2023-03-16T19:13:00.768Z,62.20
2023-03-16T19:15:31.114Z,61.88
2023-03-16T19:17:58.631Z,62.04
2023-03-16T19:37:27.007Z,61.70
2023-03-16T19:39:53.460Z,62.50
2023-03-16T19:42:31.401Z,61.88
2023-03-16T19:45:00.488Z,61.96
2023-03-16T19:47:32.007Z,61.49
2023-03-16T19:49:59.993Z,61.05
2023-03-16T19:52:38.968Z,61.47
2023-03-16T19:55:05.824Z,60.50
2023-03-16T19:57:33.894Z,60.60
2023-03-16T20:00:01.888Z,61.68
2023-03-16T20:02:40.103Z,61.00
2023-03-16T20:05:08.518Z,60.23
2023-03-16T20:07:40.141Z,60.72
2023-03-16T20:10:10.244Z,62.26
2023-03-16T20:12:42.075Z,61.36
2023-03-16T20:15:20.783Z,62.64
2023-03-16T20:17:52.006Z,63.72
2023-03-16T20:20:29.598Z,63.68
2023-03-16T20:22:59.643Z,63.83
2023-03-16T20:25:31.788Z,64.52
2023-03-16T20:28:05.239Z,65.69
2023-03-16T20:30:32.046Z,64.85
2023-03-16T20:33:08.087Z,65.64
2023-03-16T20:35:38.965Z,64.73
2023-03-16T20:38:13.901Z,64.79
2023-03-16T20:40:44.815Z,64.72
2023-03-16T20:43:23.679Z,65.16
2023-03-16T20:45:56.763Z,66.82
2023-03-16T20:48:26.071Z,65.75
2023-03-16T20:50:56.443Z,65.47
2023-03-16T20:53:24.446Z,65.11
2023-03-16T20:55:54.743Z,64.43
2023-03-16T20:58:34.523Z,66.97
2023-03-16T21:01:03.605Z,65.40
2023-03-16T21:03:34.429Z,67.40
2023-03-16T21:06:01.205Z,65.44
2023-03-16T21:08:41.654Z,64.71
2023-03-16T21:11:19.302Z,66.60
2023-03-16T21:13:52.792Z,65.46
2023-03-16T21:16:22.552Z,65.92
2023-03-16T21:18:52.463Z,64.17
2023-03-16T21:21:19.722Z,65.12
2023-03-16T21:23:47.823Z,64.91
2023-03-16T21:26:24.980Z,66.19
2023-03-16T21:28:58.197Z,65.04
2023-03-16T21:31:26.522Z,65.43
2023-03-16T21:33:56.955Z,66.43
2023-03-16T21:36:27.348Z,66.11
2023-03-16T21:38:57.851Z,64.98
2023-03-16T21:41:25.181Z,63.91
2023-03-16T21:43:55.817Z,66.36
2023-03-16T21:46:24.384Z,66.45
2023-03-16T21:48:56.320Z,66.31
2023-03-16T21:51:30.871Z,65.74
2023-03-16T21:53:58.832Z,64.69
2023-03-16T21:56:28.197Z,64.75
2023-03-16T21:58:56.927Z,64.88
2023-03-16T22:01:31.515Z,63.99
2023-03-16T22:04:04.018Z,64.73
2023-03-16T22:06:31.636Z,65.29
2023-03-16T22:08:59.977Z,63.88
